sensor_id;sensor_type;location;lat;lon;timestamp;pressure;altitude;pressure_sealevel;temperature;humidity
72925;BME280;61070;50.794;7.054;2022-10-18T00:00:19;101939.25;;;15.82;100.00
72925;BME280;61070;50.794;7.054;2022-10-18T00:02:44;101939.28;;;15.81;100.00
72925;BME280;61070;50.794;7.054;2022-10-18T00:05:10;101939.28;;;15.81;100.00
72925;BME280;61070;50.794;7.054;2022-10-18T00:07:35;101945.50;;;15.81;100.00
72925;BME280;61070;50.794;7.054;2022-10-18T00:10:00;101941.09;;;15.79;100.00
72925;BME280;61070;50.794;7.054;2022-10-18T00:12:26;101937.53;;;15.80;100.00
72925;BME280;61070;50.794;7.054;2022-10-18T00:14:51;101940.22;;;15.78;100.00
72925;BME280;61070;50.794;7.054;2022-10-18T00:17:16;101940.22;;;15.78;100.00
72925;BME280;61070;50.794;7.054;2022-10-18T00:19:42;101938.41;;;15.80;100.00
72925;BME280;61070;50.794;7.054;2022-10-18T00:22:07;101941.97;;;15.79;100.00
72925;BME280;61070;50.794;7.054;2022-10-18T00:24:33;101942.88;;;15.80;100.00
72925;BME280;61070;50.794;7.054;2022-10-18T00:26:58;101936.63;;;15.79;100.00
72925;BME280;61070;50.794;7.054;2022-10-18T00:29:23;101931.25;;;15.82;100.00
72925;BME280;61070;50.794;7.054;2022-10-18T00:31:49;101924.13;;;15.81;100.00
72925;BME280;61070;50.794;7.054;2022-10-18T00:34:15;101925.94;;;15.79;100.00
72925;BME280;61070;50.794;7.054;2022-10-18T00:36:41;101920.72;;;15.70;100.00
72925;BME280;61070;50.794;7.054;2022-10-18T00:39:08;101917.25;;;15.65;100.00
72925;BME280;61070;50.794;7.054;2022-10-18T00:41:36;101919.00;;;15.66;100.00
72925;BME280;61070;50.794;7.054;2022-10-18T00:46:51;101912.75;;;15.68;100.00
72925;BME280;61070;50.794;7.054;2022-10-18T00:49:29;101908.31;;;15.66;100.00
72925;BME280;61070;50.794;7.054;2022-10-18T00:51:58;101917.19;;;15.68;100.00
72925;BME280;61070;50.794;7.054;2022-10-18T00:54:27;101914.47;;;15.71;100.00
72925;BME280;61070;50.794;7.054;2022-10-18T00:56:54;101909.22;;;15.66;100.00
72925;BME280;61070;50.794;7.054;2022-10-18T00:59:19;101905.59;;;15.69;100.00
72925;BME280;61070;50.794;7.054;2022-10-18T01:01:45;101907.31;;;15.73;100.00
72925;BME280;61070;50.794;7.054;2022-10-18T01:04:12;101908.25;;;15.70;100.00
72925;BME280;61070;50.794;7.054;2022-10-18T01:06:58;101912.72;;;15.70;100.00
72925;BME280;61070;50.794;7.054;2022-10-18T01:12:12;101908.25;;;15.70;100.00
72925;BME280;61070;50.794;7.054;2022-10-18T01:15:11;101897.53;;;15.72;100.00
72925;BME280;61070;50.794;7.054;2022-10-18T01:17:52;101894.91;;;15.70;100.00
72925;BME280;61070;50.794;7.054;2022-10-18T01:23:09;101886.94;;;15.67;100.00
72925;BME280;61070;50.794;7.054;2022-10-18T01:34:07;101890.44;;;15.71;100.00
72925;BME280;61070;50.794;7.054;2022-10-18T01:36:36;101901.16;;;15.68;100.00
72925;BME280;61070;50.794;7.054;2022-10-18T01:39:11;101902.06;;;15.67;100.00
72925;BME280;61070;50.794;7.054;2022-10-18T01:41:38;101899.34;;;15.71;100.00
72925;BME280;61070;50.794;7.054;2022-10-18T01:44:06;101894.03;;;15.68;100.00
72925;BME280;61070;50.794;7.054;2022-10-18T01:46:33;101886.88;;;15.70;100.00
72925;BME280;61070;50.794;7.054;2022-10-18T01:48:59;101889.56;;;15.69;100.00
72925;BME280;61070;50.794;7.054;2022-10-18T01:51:26;101885.19;;;15.65;100.00
72925;BME280;61070;50.794;7.054;2022-10-18T01:53:53;101881.59;;;15.67;100.00
72925;BME280;61070;50.794;7.054;2022-10-18T01:56:39;101890.53;;;15.65;100.00
72925;BME280;61070;50.794;7.054;2022-10-18T02:04:50;101889.69;;;15.60;100.00
72925;BME280;61070;50.794;7.054;2022-10-18T02:07:35;101888.84;;;15.55;100.00
72925;BME280;61070;50.794;7.054;2022-10-18T02:10:19;101888.88;;;15.53;100.00
72925;BME280;61070;50.794;7.054;2022-10-18T02:12:47;101887.94;;;15.56;100.00
72925;BME280;61070;50.794;7.054;2022-10-18T02:15:18;101891.47;;;15.58;100.00
72925;BME280;61070;50.794;7.054;2022-10-18T02:17:44;101893.25;;;15.57;100.00
72925;BME280;61070;50.794;7.054;2022-10-18T02:20:17;101884.41;;;15.55;100.00
72925;BME280;61070;50.794;7.054;2022-10-18T02:22:46;101888.88;;;15.53;100.00
72925;BME280;61070;50.794;7.054;2022-10-18T02:25:21;101888.78;;;15.64;100.00
72925;BME280;61070;50.794;7.054;2022-10-18T02:27:48;101890.56;;;15.62;100.00
72925;BME280;61070;50.794;7.054;2022-10-18T02:30:14;101895.91;;;15.63;100.00
72925;BME280;61070;50.794;7.054;2022-10-18T02:32:44;101893.97;;;15.71;100.00
72925;BME280;61070;50.794;7.054;2022-10-18T02:35:20;101899.34;;;15.70;100.00
72925;BME280;61070;50.794;7.054;2022-10-18T02:37:49;101895.84;;;15.66;100.00
72925;BME280;61070;50.794;7.054;2022-10-18T02:40:17;101890.59;;;15.57;100.00
72925;BME280;61070;50.794;7.054;2022-10-18T02:42:52;101894.91;;;15.69;100.00
72925;BME280;61070;50.794;7.054;2022-10-18T02:45:18;101891.44;;;15.64;100.00
72925;BME280;61070;50.794;7.054;2022-10-18T02:47:44;101895.84;;;15.66;100.00
72925;BME280;61070;50.794;7.054;2022-10-18T02:50:09;101893.09;;;15.71;100.00
72925;BME280;61070;50.794;7.054;2022-10-18T02:52:34;101898.44;;;15.71;100.00
72925;BME280;61070;50.794;7.054;2022-10-18T02:55:00;101896.66;;;15.71;100.00
72925;BME280;61070;50.794;7.054;2022-10-18T02:57:26;101898.44;;;15.71;100.00
72925;BME280;61070;50.794;7.054;2022-10-18T02:59:51;101904.66;;;15.73;100.00
72925;BME280;61070;50.794;7.054;2022-10-18T03:02:16;101903.75;;;15.74;100.00
72925;BME280;61070;50.794;7.054;2022-10-18T03:04:41;101904.69;;;15.70;100.00
72925;BME280;61070;50.794;7.054;2022-10-18T03:07:07;101911.81;;;15.71;100.00
72925;BME280;61070;50.794;7.054;2022-10-18T03:09:32;101910.88;;;15.73;100.00
72925;BME280;61070;50.794;7.054;2022-10-18T03:11:58;101912.72;;;15.70;100.00
72925;BME280;61070;50.794;7.054;2022-10-18T03:14:23;101910.94;;;15.69;100.00
72925;BME280;61070;50.794;7.054;2022-10-18T03:16:48;101913.59;;;15.70;100.00
72925;BME280;61070;50.794;7.054;2022-10-18T03:19:14;101918.91;;;15.72;100.00
72925;BME280;61070;50.794;7.054;2022-10-18T03:21:39;101915.34;;;15.75;100.00
72925;BME280;61070;50.794;7.054;2022-10-18T03:24:05;101912.66;;;15.73;100.00
72925;BME280;61070;50.794;7.054;2022-10-18T03:26:30;101915.44;;;15.67;100.00
72925;BME280;61070;50.794;7.054;2022-10-18T03:28:56;101911.91;;;15.65;100.00
72925;BME280;61070;50.794;7.054;2022-10-18T03:31:21;101913.66;;;15.66;100.00
72925;BME280;61070;50.794;7.054;2022-10-18T03:33:47;101911.88;;;15.66;100.00
72925;BME280;61070;50.794;7.054;2022-10-18T03:36:12;101919.91;;;15.65;100.00
72925;BME280;61070;50.794;7.054;2022-10-18T03:38:37;101914.56;;;15.65;100.00
72925;BME280;61070;50.794;7.054;2022-10-18T03:41:03;101919.06;;;15.63;100.00
72925;BME280;61070;50.794;7.054;2022-10-18T03:43:28;101902.19;;;15.56;100.00
72925;BME280;61070;50.794;7.054;2022-10-18T03:45:54;101904.00;;;15.54;100.00
72925;BME280;61070;50.794;7.054;2022-10-18T03:48:19;101901.31;;;15.56;100.00
72925;BME280;61070;50.794;7.054;2022-10-18T03:50:44;101894.19;;;15.56;100.00
72925;BME280;61070;50.794;7.054;2022-10-18T03:53:10;101901.31;;;15.56;100.00
72925;BME280;61070;50.794;7.054;2022-10-18T03:55:35;101894.22;;;15.53;100.00
72925;BME280;61070;50.794;7.054;2022-10-18T03:58:01;101905.78;;;15.54;100.00
72925;BME280;61070;50.794;7.054;2022-10-18T04:00:26;101905.78;;;15.54;100.00
72925;BME280;61070;50.794;7.054;2022-10-18T04:02:52;101888.03;;;15.48;100.00
72925;BME280;61070;50.794;7.054;2022-10-18T04:05:17;101888.00;;;15.50;100.00
72925;BME280;61070;50.794;7.054;2022-10-18T04:07:42;101887.09;;;15.51;100.00
72925;BME280;61070;50.794;7.054;2022-10-18T04:10:08;101888.97;;;15.46;100.00
72925;BME280;61070;50.794;7.054;2022-10-18T04:12:33;101894.34;;;15.44;100.00
72925;BME280;61070;50.794;7.054;2022-10-18T04:14:58;101909.53;;;15.40;100.00
72925;BME280;61070;50.794;7.054;2022-10-18T04:17:24;101910.38;;;15.42;100.00
72925;BME280;61070;50.794;7.054;2022-10-18T04:19:49;101907.72;;;15.42;100.00
72925;BME280;61070;50.794;7.054;2022-10-18T04:22:14;101905.03;;;15.42;100.00
72925;BME280;61070;50.794;7.054;2022-10-18T04:24:39;101911.22;;;15.46;100.00
72925;BME280;61070;50.794;7.054;2022-10-18T04:27:05;101900.59;;;15.43;100.00
72925;BME280;61070;50.794;7.054;2022-10-18T04:29:31;101905.03;;;15.42;100.00
72925;BME280;61070;50.794;7.054;2022-10-18T04:31:56;101897.00;;;15.44;100.00
72925;BME280;61070;50.794;7.054;2022-10-18T04:34:22;101905.00;;;15.46;100.00
72925;BME280;61070;50.794;7.054;2022-10-18T04:36:47;101908.56;;;15.44;100.00
72925;BME280;61070;50.794;7.054;2022-10-18T04:39:12;101905.91;;;15.44;100.00
72925;BME280;61070;50.794;7.054;2022-10-18T04:41:38;101913.91;;;15.44;100.00
72925;BME280;61070;50.794;7.054;2022-10-18T04:44:03;101912.06;;;15.48;100.00
72925;BME280;61070;50.794;7.054;2022-10-18T04:46:30;101907.63;;;15.49;100.00
72925;BME280;61070;50.794;7.054;2022-10-18T04:48:55;101913.84;;;15.49;100.00
72925;BME280;61070;50.794;7.054;2022-10-18T04:51:20;101913.88;;;15.48;100.00
72925;BME280;61070;50.794;7.054;2022-10-18T04:53:46;101905.81;;;15.49;100.00
72925;BME280;61070;50.794;7.054;2022-10-18T04:56:11;101913.84;;;15.49;100.00
72925;BME280;61070;50.794;7.054;2022-10-18T04:58:36;101908.53;;;15.48;100.00
72925;BME280;61070;50.794;7.054;2022-10-18T05:01:05;101911.19;;;15.48;100.00
72925;BME280;61070;50.794;7.054;2022-10-18T05:03:31;101914.78;;;15.47;100.00
72925;BME280;61070;50.794;7.054;2022-10-18T05:05:56;101922.78;;;15.47;100.00
72925;BME280;61070;50.794;7.054;2022-10-18T05:08:22;101931.69;;;15.46;100.00
72925;BME280;61070;50.794;7.054;2022-10-18T05:10:47;101926.34;;;15.47;100.00
72925;BME280;61070;50.794;7.054;2022-10-18T05:13:12;101933.41;;;15.50;100.00
72925;BME280;61070;50.794;7.054;2022-10-18T05:15:38;101926.31;;;15.49;100.00
72925;BME280;61070;50.794;7.054;2022-10-18T05:18:03;101929.88;;;15.48;100.00
72925;BME280;61070;50.794;7.054;2022-10-18T05:20:28;101927.19;;;15.49;100.00
72925;BME280;61070;50.794;7.054;2022-10-18T05:22:54;101928.06;;;15.50;100.00
72925;BME280;61070;50.794;7.054;2022-10-18T05:25:19;101933.41;;;15.50;100.00
72925;BME280;61070;50.794;7.054;2022-10-18T05:27:44;101936.97;;;15.50;100.00
72925;BME280;61070;50.794;7.054;2022-10-18T05:30:10;101935.22;;;15.48;100.00
72925;BME280;61070;50.794;7.054;2022-10-18T05:32:35;101938.78;;;15.48;100.00
72925;BME280;61070;50.794;7.054;2022-10-18T05:35:00;101930.75;;;15.50;100.00
72925;BME280;61070;50.794;7.054;2022-10-18T05:37:25;101930.78;;;15.48;100.00
72925;BME280;61070;50.794;7.054;2022-10-18T05:39:51;101933.38;;;15.51;100.00
72925;BME280;61070;50.794;7.054;2022-10-18T05:42:17;101942.28;;;15.53;100.00
72925;BME280;61070;50.794;7.054;2022-10-18T05:44:42;101932.50;;;15.51;100.00
72925;BME280;61070;50.794;7.054;2022-10-18T05:47:07;101935.19;;;15.51;100.00
72925;BME280;61070;50.794;7.054;2022-10-18T05:49:32;101932.56;;;15.48;100.00
72925;BME280;61070;50.794;7.054;2022-10-18T05:51:58;101943.25;;;15.48;100.00
72925;BME280;61070;50.794;7.054;2022-10-18T05:54:23;101943.25;;;15.48;100.00
72925;BME280;61070;50.794;7.054;2022-10-18T05:56:48;101945.91;;;15.48;100.00
72925;BME280;61070;50.794;7.054;2022-10-18T05:59:13;101939.69;;;15.47;100.00
72925;BME280;61070;50.794;7.054;2022-10-18T06:01:40;101952.13;;;15.48;100.00
72925;BME280;61070;50.794;7.054;2022-10-18T06:04:07;101949.47;;;15.48;100.00
72925;BME280;61070;50.794;7.054;2022-10-18T06:06:34;101950.34;;;15.49;100.00
72925;BME280;61070;50.794;7.054;2022-10-18T06:09:00;101953.91;;;15.48;100.00
72925;BME280;61070;50.794;7.054;2022-10-18T06:11:27;101958.34;;;15.50;100.00
72925;BME280;61070;50.794;7.054;2022-10-18T06:13:53;101962.78;;;15.50;100.00
72925;BME280;61070;50.794;7.054;2022-10-18T06:16:20;101965.44;;;15.51;100.00
72925;BME280;61070;50.794;7.054;2022-10-18T06:18:51;101956.53;;;15.54;100.00
72925;BME280;61070;50.794;7.054;2022-10-18T06:21:17;101959.22;;;15.54;100.00
72925;BME280;61070;50.794;7.054;2022-10-18T06:23:47;101952.09;;;15.53;100.00
72925;BME280;61070;50.794;7.054;2022-10-18T06:26:12;101966.25;;;15.59;100.00
72925;BME280;61070;50.794;7.054;2022-10-18T06:28:37;101957.41;;;15.54;100.00
72925;BME280;61070;50.794;7.054;2022-10-18T06:31:04;101953.81;;;15.57;100.00
72925;BME280;61070;50.794;7.054;2022-10-18T06:33:31;101945.78;;;15.58;100.00
72925;BME280;61070;50.794;7.054;2022-10-18T06:36:03;101950.22;;;15.59;100.00
72925;BME280;61070;50.794;7.054;2022-10-18T06:38:29;101952.00;;;15.60;100.00
72925;BME280;61070;50.794;7.054;2022-10-18T06:40:56;101956.44;;;15.61;100.00
72925;BME280;61070;50.794;7.054;2022-10-18T06:43:22;101959.13;;;15.63;100.00
72925;BME280;61070;50.794;7.054;2022-10-18T06:45:48;101958.22;;;15.62;100.00
72925;BME280;61070;50.794;7.054;2022-10-18T06:48:13;101965.34;;;15.62;100.00
72925;BME280;61070;50.794;7.054;2022-10-18T06:50:38;101960.03;;;15.60;100.00
72925;BME280;61070;50.794;7.054;2022-10-18T06:53:04;101968.91;;;15.64;100.00
72925;BME280;61070;50.794;7.054;2022-10-18T06:55:32;101972.47;;;15.64;100.00
72925;BME280;61070;50.794;7.054;2022-10-18T06:57:57;101969.78;;;15.66;100.00
72925;BME280;61070;50.794;7.054;2022-10-18T07:00:23;101969.75;;;15.67;100.00
72925;BME280;61070;50.794;7.054;2022-10-18T07:02:48;101981.28;;;15.69;100.00
72925;BME280;61070;50.794;7.054;2022-10-18T07:05:13;101980.41;;;15.69;100.00
72925;BME280;61070;50.794;7.054;2022-10-18T07:07:39;101988.47;;;15.66;100.00
72925;BME280;61070;50.794;7.054;2022-10-18T07:10:05;101989.34;;;15.66;100.00
72925;BME280;61070;50.794;7.054;2022-10-18T07:12:32;101995.56;;;15.67;100.00
72925;BME280;61070;50.794;7.054;2022-10-18T07:14:57;101991.94;;;15.71;100.00
72925;BME280;61070;50.794;7.054;2022-10-18T07:17:22;101994.66;;;15.69;100.00
72925;BME280;61070;50.794;7.054;2022-10-18T07:19:48;101991.94;;;15.72;100.00
72925;BME280;61070;50.794;7.054;2022-10-18T07:22:13;101995.47;;;15.73;100.00
72925;BME280;61070;50.794;7.054;2022-10-18T07:24:38;102001.72;;;15.73;100.00
72925;BME280;61070;50.794;7.054;2022-10-18T07:27:04;102007.06;;;15.75;100.00
72925;BME280;61070;50.794;7.054;2022-10-18T07:29:30;102011.50;;;15.76;100.00
72925;BME280;61070;50.794;7.054;2022-10-18T07:31:55;102010.63;;;15.76;100.00
72925;BME280;61070;50.794;7.054;2022-10-18T07:34:21;102007.94;;;15.74;100.00
72925;BME280;61070;50.794;7.054;2022-10-18T07:36:46;102008.84;;;15.73;100.00
72925;BME280;61070;50.794;7.054;2022-10-18T07:39:11;102018.66;;;15.71;100.00
72925;BME280;61070;50.794;7.054;2022-10-18T07:41:37;102013.38;;;15.68;100.00
72925;BME280;61070;50.794;7.054;2022-10-18T07:44:03;102028.47;;;15.70;100.00
72925;BME280;61070;50.794;7.054;2022-10-18T07:46:28;102023.16;;;15.69;100.00
72925;BME280;61070;50.794;7.054;2022-10-18T07:48:54;102036.47;;;15.72;100.00
72925;BME280;61070;50.794;7.054;2022-10-18T07:51:19;102040.81;;;15.81;100.00
72925;BME280;61070;50.794;7.054;2022-10-18T07:53:45;102045.34;;;15.74;100.00
72925;BME280;61070;50.794;7.054;2022-10-18T07:56:12;102048.91;;;15.73;100.00
72925;BME280;61070;50.794;7.054;2022-10-18T07:58:41;102056.03;;;15.74;100.00
72925;BME280;61070;50.794;7.054;2022-10-18T08:01:07;102053.38;;;15.72;100.00
72925;BME280;61070;50.794;7.054;2022-10-18T08:03:34;102052.47;;;15.73;100.00
72925;BME280;61070;50.794;7.054;2022-10-18T08:06:00;102049.78;;;15.77;100.00
72925;BME280;61070;50.794;7.054;2022-10-18T08:08:26;102057.75;;;15.81;100.00
72925;BME280;61070;50.794;7.054;2022-10-18T08:10:52;102059.47;;;15.85;100.00
72925;BME280;61070;50.794;7.054;2022-10-18T08:13:17;102058.56;;;15.88;100.00
72925;BME280;61070;50.794;7.054;2022-10-18T08:15:43;102053.19;;;15.89;100.00
72925;BME280;61070;50.794;7.054;2022-10-18T08:18:09;102057.63;;;15.92;100.00
72925;BME280;61070;50.794;7.054;2022-10-18T08:20:35;102046.94;;;15.90;100.00
72925;BME280;61070;50.794;7.054;2022-10-18T08:23:01;102051.38;;;15.93;100.00
72925;BME280;61070;50.794;7.054;2022-10-18T08:25:29;102050.47;;;15.92;100.00
72925;BME280;61070;50.794;7.054;2022-10-18T08:27:54;102056.75;;;15.90;100.00
72925;BME280;61070;50.794;7.054;2022-10-18T08:30:19;102057.53;;;15.99;100.00
72925;BME280;61070;50.794;7.054;2022-10-18T08:32:45;102061.13;;;15.95;100.00
72925;BME280;61070;50.794;7.054;2022-10-18T08:35:10;102063.78;;;15.98;100.00
72925;BME280;61070;50.794;7.054;2022-10-18T08:37:35;102069.06;;;16.03;100.00
72925;BME280;61070;50.794;7.054;2022-10-18T08:40:00;102065.47;;;16.04;100.00
72925;BME280;61070;50.794;7.054;2022-10-18T08:42:55;102071.66;;;16.11;100.00
72925;BME280;61070;50.794;7.054;2022-10-18T08:45:25;102077.78;;;16.17;100.00
72925;BME280;61070;50.794;7.054;2022-10-18T08:47:51;102084.91;;;16.20;100.00
72925;BME280;61070;50.794;7.054;2022-10-18T08:50:24;102078.56;;;16.27;100.00
72925;BME280;61070;50.794;7.054;2022-10-18T08:57:48;102081.19;;;16.32;100.00
72925;BME280;61070;50.794;7.054;2022-10-18T09:00:19;102098.97;;;16.34;100.00
72925;BME280;61070;50.794;7.054;2022-10-18T09:06:00;102095.44;;;16.30;100.00
72925;BME280;61070;50.794;7.054;2022-10-18T09:09:00;102088.31;;;16.29;100.00
72925;BME280;61070;50.794;7.054;2022-10-18T09:11:52;102099.91;;;16.30;100.00
72925;BME280;61070;50.794;7.054;2022-10-18T09:25:35;102107.03;;;16.33;100.00
72925;BME280;61070;50.794;7.054;2022-10-18T09:30:40;102109.63;;;16.37;100.00
72925;BME280;61070;50.794;7.054;2022-10-18T09:35:55;102109.66;;;16.34;100.00
72925;BME280;61070;50.794;7.054;2022-10-18T09:38:23;102108.81;;;16.30;100.00
72925;BME280;61070;50.794;7.054;2022-10-18T09:40:54;102107.91;;;16.30;100.00
72925;BME280;61070;50.794;7.054;2022-10-18T09:43:23;102115.06;;;16.31;100.00
72925;BME280;61070;50.794;7.054;2022-10-18T09:45:52;102120.28;;;16.39;100.00
72925;BME280;61070;50.794;7.054;2022-10-18T09:48:26;102115.84;;;16.38;100.00
72925;BME280;61070;50.794;7.054;2022-10-18T09:51:06;102114.09;;;16.37;100.00
72925;BME280;61070;50.794;7.054;2022-10-18T09:53:42;102117.59;;;16.40;100.00
72925;BME280;61070;50.794;7.054;2022-10-18T09:56:25;102116.72;;;16.40;100.00
72925;BME280;61070;50.794;7.054;2022-10-18T09:58:53;102120.28;;;16.39;100.00
72925;BME280;61070;50.794;7.054;2022-10-18T10:01:25;102116.84;;;16.32;100.00
72925;BME280;61070;50.794;7.054;2022-10-18T10:03:51;102113.28;;;16.30;100.00
72925;BME280;61070;50.794;7.054;2022-10-18T10:09:13;102128.44;;;16.31;100.00
72925;BME280;61070;50.794;7.054;2022-10-18T10:11:47;102118.56;;;16.35;100.00
72925;BME280;61070;50.794;7.054;2022-10-18T10:14:15;102123.16;;;16.25;100.00
72925;BME280;61070;50.794;7.054;2022-10-18T10:16:50;102127.63;;;16.23;100.00
72925;BME280;61070;50.794;7.054;2022-10-18T10:19:59;102118.78;;;16.18;100.00
72925;BME280;61070;50.794;7.054;2022-10-18T10:22:27;102126.72;;;16.24;100.00
72925;BME280;61070;50.794;7.054;2022-10-18T10:24:56;102128.56;;;16.22;100.00
72925;BME280;61070;50.794;7.054;2022-10-18T10:27:41;102134.56;;;16.38;100.00
72925;BME280;61070;50.794;7.054;2022-10-18T10:30:29;102136.41;;;16.36;100.00
72925;BME280;61070;50.794;7.054;2022-10-18T10:32:56;102138.13;;;16.40;100.00
72925;BME280;61070;50.794;7.054;2022-10-18T10:35:34;102145.19;;;16.45;100.00
72925;BME280;61070;50.794;7.054;2022-10-18T10:38:00;102147.78;;;16.50;100.00
72925;BME280;61070;50.794;7.054;2022-10-18T10:40:33;102139.84;;;16.45;100.00
72925;BME280;61070;50.794;7.054;2022-10-18T10:46:12;102146.97;;;16.46;100.00
72925;BME280;61070;50.794;7.054;2022-10-18T10:51:37;102151.41;;;16.46;100.00
72925;BME280;61070;50.794;7.054;2022-10-18T10:54:10;102147.03;;;16.39;100.00
72925;BME280;61070;50.794;7.054;2022-10-18T10:56:56;102147.91;;;16.42;100.00
72925;BME280;61070;50.794;7.054;2022-10-18T10:59:24;102160.38;;;16.42;100.00
72925;BME280;61070;50.794;7.054;2022-10-18T11:02:21;102158.59;;;16.41;100.00
72925;BME280;61070;50.794;7.054;2022-10-18T11:04:52;102155.09;;;16.37;100.00
72925;BME280;61070;50.794;7.054;2022-10-18T11:07:24;102156.03;;;16.35;100.00
72925;BME280;61070;50.794;7.054;2022-10-18T11:12:38;102153.31;;;16.36;100.00
72925;BME280;61070;50.794;7.054;2022-10-18T11:15:27;102154.97;;;16.46;100.00
72925;BME280;61070;50.794;7.054;2022-10-18T11:18:07;102155.81;;;16.50;100.00
72925;BME280;61070;50.794;7.054;2022-10-18T11:20:41;102153.16;;;16.48;100.00
72925;BME280;61070;50.794;7.054;2022-10-18T11:23:10;102159.34;;;16.52;100.00
72925;BME280;61070;50.794;7.054;2022-10-18T11:37:38;102138.72;;;16.62;100.00
72925;BME280;61070;50.794;7.054;2022-10-18T11:43:15;102150.31;;;16.60;100.00
72925;BME280;61070;50.794;7.054;2022-10-18T11:45:57;102142.25;;;16.64;100.00
72925;BME280;61070;50.794;7.054;2022-10-18T11:51:34;102138.78;;;16.57;100.00
72925;BME280;61070;50.794;7.054;2022-10-18T11:56:39;102135.28;;;16.52;100.00
72925;BME280;61070;50.794;7.054;2022-10-18T11:59:27;102128.94;;;16.59;100.00
72925;BME280;61070;50.794;7.054;2022-10-18T12:02:02;102136.00;;;16.68;100.00
72925;BME280;61070;50.794;7.054;2022-10-18T12:04:43;102140.41;;;16.72;100.00
72925;BME280;61070;50.794;7.054;2022-10-18T12:07:14;102131.38;;;16.79;100.00
72925;BME280;61070;50.794;7.054;2022-10-18T12:09:43;102121.19;;;17.04;100.00
72925;BME280;61070;50.794;7.054;2022-10-18T12:12:19;102122.50;;;17.31;100.00
72925;BME280;61070;50.794;7.054;2022-10-18T12:14:50;102114.44;;;17.34;100.00
72925;BME280;61070;50.794;7.054;2022-10-18T12:19:57;102112.63;;;17.36;100.00
72925;BME280;61070;50.794;7.054;2022-10-18T12:22:39;102126.06;;;17.33;100.00
72925;BME280;61070;50.794;7.054;2022-10-18T12:25:11;102116.81;;;17.51;100.00
72925;BME280;61070;50.794;7.054;2022-10-18T12:27:43;102117.03;;;17.38;100.00
72925;BME280;61070;50.794;7.054;2022-10-18T12:32:44;102109.06;;;17.35;100.00
72925;BME280;61070;50.794;7.054;2022-10-18T12:35:15;102107.31;;;17.31;100.00
72925;BME280;61070;50.794;7.054;2022-10-18T12:38:19;102116.22;;;17.35;100.00
72925;BME280;61070;50.794;7.054;2022-10-18T12:40:51;102117.78;;;17.46;100.00
72925;BME280;61070;50.794;7.054;2022-10-18T12:43:22;102108.88;;;17.46;100.00
72925;BME280;61070;50.794;7.054;2022-10-18T12:45:57;102104.28;;;17.51;100.00
72925;BME280;61070;50.794;7.054;2022-10-18T12:48:37;102113.88;;;17.64;100.00
72925;BME280;61070;50.794;7.054;2022-10-18T12:51:04;102105.00;;;17.61;100.00
72925;BME280;61070;50.794;7.054;2022-10-18T12:53:30;102108.75;;;17.52;100.00
72925;BME280;61070;50.794;7.054;2022-10-18T13:09:42;102102.28;;;17.64;100.00
72925;BME280;61070;50.794;7.054;2022-10-18T13:17:59;102092.50;;;17.61;100.00
72925;BME280;61070;50.794;7.054;2022-10-18T13:20:46;102104.00;;;17.68;100.00
72925;BME280;61070;50.794;7.054;2022-10-18T13:26:05;102097.09;;;17.53;100.00
72925;BME280;61070;50.794;7.054;2022-10-18T13:28:46;102098.81;;;17.59;100.00
72925;BME280;61070;50.794;7.054;2022-10-18T13:31:27;102099.75;;;17.56;100.00
72925;BME280;61070;50.794;7.054;2022-10-18T13:33:54;102094.19;;;17.65;100.00
72925;BME280;61070;50.794;7.054;2022-10-18T13:36:22;102096.91;;;17.64;100.00
72925;BME280;61070;50.794;7.054;2022-10-18T13:41:27;102096.44;;;17.91;100.00
72925;BME280;61070;50.794;7.054;2022-10-18T14:05:53;102103.19;;;18.93;92.01
72925;BME280;61070;50.794;7.054;2022-10-18T14:08:26;102108.28;;;19.03;91.49
72925;BME280;61070;50.794;7.054;2022-10-18T14:14:28;102113.34;;;18.38;91.49
72925;BME280;61070;50.794;7.054;2022-10-18T14:17:28;102108.50;;;18.14;92.62
72925;BME280;61070;50.794;7.054;2022-10-18T14:20:00;102101.25;;;18.17;93.30
72925;BME280;61070;50.794;7.054;2022-10-18T14:22:47;102110.50;;;18.02;93.47
72925;BME280;61070;50.794;7.054;2022-10-18T14:25:34;102111.88;;;18.23;92.49
72925;BME280;61070;50.794;7.054;2022-10-18T14:28:20;102110.69;;;18.37;92.87
72925;BME280;61070;50.794;7.054;2022-10-18T14:31:02;102110.69;;;18.37;94.51
72925;BME280;61070;50.794;7.054;2022-10-18T14:33:42;102110.28;;;18.12;93.55
72925;BME280;61070;50.794;7.054;2022-10-18T14:36:14;102109.03;;;18.29;92.15
72925;BME280;61070;50.794;7.054;2022-10-18T14:38:50;102111.97;;;18.17;92.50
72925;BME280;61070;50.794;7.054;2022-10-18T14:43:48;102111.44;;;18.00;93.92
72925;BME280;61070;50.794;7.054;2022-10-18T14:46:22;102102.78;;;17.86;92.06
72925;BME280;61070;50.794;7.054;2022-10-18T14:49:00;102110.16;;;17.74;92.86
72925;BME280;61070;50.794;7.054;2022-10-18T14:51:29;102117.34;;;17.72;92.44
72925;BME280;61070;50.794;7.054;2022-10-18T14:53:59;102117.16;;;17.82;91.12
72925;BME280;61070;50.794;7.054;2022-10-18T14:56:28;102120.69;;;17.84;93.48
72925;BME280;61070;50.794;7.054;2022-10-18T14:58:55;102119.75;;;17.86;91.00
72925;BME280;61070;50.794;7.054;2022-10-18T15:01:25;102113.94;;;18.09;90.12
72925;BME280;61070;50.794;7.054;2022-10-18T15:04:00;102120.28;;;18.05;88.83
72925;BME280;61070;50.794;7.054;2022-10-18T15:06:26;102111.78;;;17.83;88.18
72925;BME280;61070;50.794;7.054;2022-10-18T15:08:55;102114.03;;;18.04;88.62